sensor_id;sensor_type;location;lat;lon;timestamp;P1;durP1;ratioP1;P2;durP2;ratioP2
8466;SDS011;4270;48.148;11.648;2023-04-03T00:01:15;10.47;;;7.13;;
8466;SDS011;4270;48.148;11.648;2023-04-03T00:03:41;8.93;;;6.57;;
8466;SDS011;4270;48.148;11.648;2023-04-03T00:06:06;8.90;;;6.23;;
8466;SDS011;4270;48.148;11.648;2023-04-03T00:08:33;10.57;;;7.13;;
8466;SDS011;4270;48.148;11.648;2023-04-03T00:10:58;8.73;;;6.67;;
8466;SDS011;4270;48.148;11.648;2023-04-03T00:13:24;11.90;;;6.97;;
8466;SDS011;4270;48.148;11.648;2023-04-03T00:15:50;9.70;;;6.83;;
8466;SDS011;4270;48.148;11.648;2023-04-03T00:18:15;9.90;;;6.67;;
8466;SDS011;4270;48.148;11.648;2023-04-03T00:20:41;9.50;;;7.20;;
8466;SDS011;4270;48.148;11.648;2023-04-03T00:23:06;9.10;;;7.30;;
8466;SDS011;4270;48.148;11.648;2023-04-03T00:25:31;10.90;;;6.87;;
8466;SDS011;4270;48.148;11.648;2023-04-03T00:27:57;10.40;;;6.90;;
8466;SDS011;4270;48.148;11.648;2023-04-03T00:30:22;12.73;;;7.20;;
8466;SDS011;4270;48.148;11.648;2023-04-03T00:32:51;10.23;;;7.00;;
8466;SDS011;4270;48.148;11.648;2023-04-03T00:35:16;10.87;;;7.50;;
8466;SDS011;4270;48.148;11.648;2023-04-03T00:37:42;11.90;;;7.43;;
8466;SDS011;4270;48.148;11.648;2023-04-03T00:40:08;9.53;;;6.90;;
8466;SDS011;4270;48.148;11.648;2023-04-03T00:42:35;12.00;;;8.10;;
8466;SDS011;4270;48.148;11.648;2023-04-03T00:47:26;8.50;;;6.40;;
8466;SDS011;4270;48.148;11.648;2023-04-03T00:49:52;10.17;;;7.00;;
8466;SDS011;4270;48.148;11.648;2023-04-03T00:52:17;11.17;;;6.97;;
8466;SDS011;4270;48.148;11.648;2023-04-03T00:54:45;12.93;;;7.33;;
8466;SDS011;4270;48.148;11.648;2023-04-03T00:57:11;8.10;;;6.90;;
8466;SDS011;4270;48.148;11.648;2023-04-03T00:59:38;11.83;;;7.63;;
8466;SDS011;4270;48.148;11.648;2023-04-03T01:02:05;9.97;;;6.13;;
8466;SDS011;4270;48.148;11.648;2023-04-03T01:04:34;10.93;;;6.83;;
8466;SDS011;4270;48.148;11.648;2023-04-03T01:07:02;12.87;;;7.53;;
8466;SDS011;4270;48.148;11.648;2023-04-03T01:09:27;10.03;;;6.53;;
8466;SDS011;4270;48.148;11.648;2023-04-03T01:11:53;9.60;;;7.00;;
8466;SDS011;4270;48.148;11.648;2023-04-03T01:14:18;9.17;;;7.23;;
8466;SDS011;4270;48.148;11.648;2023-04-03T01:16:51;7.67;;;5.97;;
8466;SDS011;4270;48.148;11.648;2023-04-03T01:19:17;10.53;;;7.20;;
8466;SDS011;4270;48.148;11.648;2023-04-03T01:26:45;8.40;;;5.77;;
8466;SDS011;4270;48.148;11.648;2023-04-03T01:29:11;8.47;;;6.43;;
8466;SDS011;4270;48.148;11.648;2023-04-03T01:34:14;9.20;;;6.67;;
8466;SDS011;4270;48.148;11.648;2023-04-03T01:36:39;8.57;;;6.90;;
8466;SDS011;4270;48.148;11.648;2023-04-03T01:39:05;8.37;;;6.30;;
8466;SDS011;4270;48.148;11.648;2023-04-03T01:41:31;8.03;;;6.13;;
8466;SDS011;4270;48.148;11.648;2023-04-03T01:43:56;8.93;;;6.10;;
8466;SDS011;4270;48.148;11.648;2023-04-03T01:46:22;9.80;;;6.77;;
8466;SDS011;4270;48.148;11.648;2023-04-03T01:48:47;10.10;;;7.40;;
8466;SDS011;4270;48.148;11.648;2023-04-03T01:51:13;8.30;;;5.93;;
8466;SDS011;4270;48.148;11.648;2023-04-03T01:53:38;9.10;;;6.83;;
8466;SDS011;4270;48.148;11.648;2023-04-03T01:56:03;8.20;;;6.00;;
8466;SDS011;4270;48.148;11.648;2023-04-03T01:58:29;7.93;;;6.13;;
8466;SDS011;4270;48.148;11.648;2023-04-03T02:00:54;8.00;;;6.30;;
8466;SDS011;4270;48.148;11.648;2023-04-03T02:03:19;8.83;;;6.33;;
8466;SDS011;4270;48.148;11.648;2023-04-03T02:05:45;8.50;;;6.53;;
8466;SDS011;4270;48.148;11.648;2023-04-03T02:08:10;9.40;;;7.33;;
8466;SDS011;4270;48.148;11.648;2023-04-03T02:10:36;10.37;;;6.70;;
8466;SDS011;4270;48.148;11.648;2023-04-03T02:13:01;9.80;;;6.93;;
8466;SDS011;4270;48.148;11.648;2023-04-03T02:15:26;6.83;;;5.60;;
8466;SDS011;4270;48.148;11.648;2023-04-03T02:17:51;10.17;;;7.80;;
8466;SDS011;4270;48.148;11.648;2023-04-03T02:20:17;10.70;;;5.67;;
8466;SDS011;4270;48.148;11.648;2023-04-03T02:22:42;8.03;;;5.63;;
8466;SDS011;4270;48.148;11.648;2023-04-03T02:25:08;8.03;;;5.93;;
8466;SDS011;4270;48.148;11.648;2023-04-03T02:27:33;6.73;;;5.33;;
8466;SDS011;4270;48.148;11.648;2023-04-03T02:29:58;8.33;;;5.70;;
8466;SDS011;4270;48.148;11.648;2023-04-03T02:32:23;7.87;;;5.97;;
8466;SDS011;4270;48.148;11.648;2023-04-03T02:34:49;6.00;;;5.40;;
8466;SDS011;4270;48.148;11.648;2023-04-03T02:37:14;7.30;;;4.93;;
8466;SDS011;4270;48.148;11.648;2023-04-03T02:39:40;8.20;;;5.30;;
8466;SDS011;4270;48.148;11.648;2023-04-03T02:42:05;6.37;;;4.83;;
8466;SDS011;4270;48.148;11.648;2023-04-03T02:44:30;5.70;;;4.67;;
8466;SDS011;4270;48.148;11.648;2023-04-03T02:46:56;5.63;;;4.87;;
8466;SDS011;4270;48.148;11.648;2023-04-03T02:49:21;6.97;;;5.40;;
8466;SDS011;4270;48.148;11.648;2023-04-03T02:51:46;8.00;;;5.27;;
8466;SDS011;4270;48.148;11.648;2023-04-03T02:54:12;5.20;;;4.57;;
8466;SDS011;4270;48.148;11.648;2023-04-03T02:56:37;5.30;;;4.80;;
8466;SDS011;4270;48.148;11.648;2023-04-03T02:59:03;5.90;;;4.50;;
8466;SDS011;4270;48.148;11.648;2023-04-03T03:01:28;6.77;;;5.00;;
8466;SDS011;4270;48.148;11.648;2023-04-03T03:03:56;5.60;;;4.47;;
8466;SDS011;4270;48.148;11.648;2023-04-03T03:06:21;5.63;;;4.30;;
8466;SDS011;4270;48.148;11.648;2023-04-03T03:08:47;6.30;;;4.47;;
8466;SDS011;4270;48.148;11.648;2023-04-03T03:11:12;6.30;;;4.30;;
8466;SDS011;4270;48.148;11.648;2023-04-03T03:13:37;7.03;;;5.50;;
8466;SDS011;4270;48.148;11.648;2023-04-03T03:16:03;6.07;;;4.63;;
8466;SDS011;4270;48.148;11.648;2023-04-03T03:18:28;5.37;;;4.10;;
8466;SDS011;4270;48.148;11.648;2023-04-03T03:20:58;5.13;;;4.20;;
8466;SDS011;4270;48.148;11.648;2023-04-03T03:23:23;6.40;;;4.40;;
8466;SDS011;4270;48.148;11.648;2023-04-03T03:25:49;5.73;;;4.17;;
8466;SDS011;4270;48.148;11.648;2023-04-03T03:28:19;4.57;;;3.80;;
8466;SDS011;4270;48.148;11.648;2023-04-03T03:30:44;5.10;;;4.50;;
8466;SDS011;4270;48.148;11.648;2023-04-03T03:33:09;5.80;;;4.10;;
8466;SDS011;4270;48.148;11.648;2023-04-03T03:35:34;6.53;;;4.27;;
8466;SDS011;4270;48.148;11.648;2023-04-03T03:38:00;7.07;;;4.37;;
8466;SDS011;4270;48.148;11.648;2023-04-03T03:40:25;6.23;;;4.30;;
8466;SDS011;4270;48.148;11.648;2023-04-03T03:42:51;6.20;;;4.30;;
8466;SDS011;4270;48.148;11.648;2023-04-03T03:45:16;5.77;;;4.40;;
8466;SDS011;4270;48.148;11.648;2023-04-03T03:47:41;4.80;;;3.90;;
8466;SDS011;4270;48.148;11.648;2023-04-03T03:50:07;4.20;;;3.70;;
8466;SDS011;4270;48.148;11.648;2023-04-03T03:52:32;6.50;;;3.67;;
8466;SDS011;4270;48.148;11.648;2023-04-03T03:54:57;4.17;;;3.77;;
8466;SDS011;4270;48.148;11.648;2023-04-03T03:57:22;4.77;;;3.70;;
8466;SDS011;4270;48.148;11.648;2023-04-03T03:59:48;4.57;;;3.97;;
8466;SDS011;4270;48.148;11.648;2023-04-03T04:02:13;9.10;;;4.00;;
8466;SDS011;4270;48.148;11.648;2023-04-03T04:04:39;5.80;;;3.40;;
8466;SDS011;4270;48.148;11.648;2023-04-03T04:07:04;5.40;;;3.70;;
8466;SDS011;4270;48.148;11.648;2023-04-03T04:09:29;7.20;;;3.83;;
8466;SDS011;4270;48.148;11.648;2023-04-03T04:11:55;4.73;;;4.03;;
8466;SDS011;4270;48.148;11.648;2023-04-03T04:14:20;7.73;;;4.17;;
8466;SDS011;4270;48.148;11.648;2023-04-03T04:16:45;5.17;;;4.17;;
8466;SDS011;4270;48.148;11.648;2023-04-03T04:19:11;4.87;;;3.53;;
8466;SDS011;4270;48.148;11.648;2023-04-03T04:21:36;4.60;;;3.50;;
8466;SDS011;4270;48.148;11.648;2023-04-03T04:24:01;3.83;;;3.23;;
8466;SDS011;4270;48.148;11.648;2023-04-03T04:26:27;4.93;;;4.30;;
8466;SDS011;4270;48.148;11.648;2023-04-03T04:28:52;6.70;;;4.20;;
8466;SDS011;4270;48.148;11.648;2023-04-03T04:31:17;5.90;;;3.93;;
8466;SDS011;4270;48.148;11.648;2023-04-03T04:33:42;4.60;;;3.80;;
8466;SDS011;4270;48.148;11.648;2023-04-03T04:36:07;4.50;;;3.23;;
8466;SDS011;4270;48.148;11.648;2023-04-03T04:38:33;4.20;;;3.80;;
8466;SDS011;4270;48.148;11.648;2023-04-03T04:40:58;6.23;;;4.10;;
8466;SDS011;4270;48.148;11.648;2023-04-03T04:43:23;3.90;;;3.20;;
8466;SDS011;4270;48.148;11.648;2023-04-03T04:45:49;4.47;;;3.70;;
8466;SDS011;4270;48.148;11.648;2023-04-03T04:48:14;4.33;;;3.63;;
8466;SDS011;4270;48.148;11.648;2023-04-03T04:50:39;5.57;;;5.00;;
8466;SDS011;4270;48.148;11.648;2023-04-03T04:53:04;5.33;;;3.37;;
8466;SDS011;4270;48.148;11.648;2023-04-03T04:55:30;4.67;;;3.87;;
8466;SDS011;4270;48.148;11.648;2023-04-03T04:57:55;3.77;;;3.37;;
8466;SDS011;4270;48.148;11.648;2023-04-03T05:00:20;4.50;;;3.73;;
8466;SDS011;4270;48.148;11.648;2023-04-03T05:02:46;5.03;;;3.77;;
8466;SDS011;4270;48.148;11.648;2023-04-03T05:05:11;4.60;;;4.07;;
8466;SDS011;4270;48.148;11.648;2023-04-03T05:07:36;3.83;;;3.43;;
8466;SDS011;4270;48.148;11.648;2023-04-03T05:10:02;5.27;;;3.60;;
8466;SDS011;4270;48.148;11.648;2023-04-03T05:12:28;4.60;;;3.70;;
8466;SDS011;4270;48.148;11.648;2023-04-03T05:14:54;4.50;;;3.80;;
8466;SDS011;4270;48.148;11.648;2023-04-03T05:17:19;5.27;;;3.50;;
8466;SDS011;4270;48.148;11.648;2023-04-03T05:19:44;7.27;;;3.67;;
8466;SDS011;4270;48.148;11.648;2023-04-03T05:22:10;4.60;;;3.57;;
8466;SDS011;4270;48.148;11.648;2023-04-03T05:24:35;4.93;;;4.03;;
8466;SDS011;4270;48.148;11.648;2023-04-03T05:27:00;4.70;;;3.70;;
8466;SDS011;4270;48.148;11.648;2023-04-03T05:29:25;8.23;;;4.20;;
8466;SDS011;4270;48.148;11.648;2023-04-03T05:31:51;5.10;;;3.87;;
8466;SDS011;4270;48.148;11.648;2023-04-03T05:34:16;4.13;;;3.17;;
8466;SDS011;4270;48.148;11.648;2023-04-03T05:36:41;4.37;;;3.97;;
8466;SDS011;4270;48.148;11.648;2023-04-03T05:39:07;5.10;;;4.20;;
8466;SDS011;4270;48.148;11.648;2023-04-03T05:41:32;4.80;;;3.97;;
8466;SDS011;4270;48.148;11.648;2023-04-03T05:43:58;4.23;;;3.67;;
8466;SDS011;4270;48.148;11.648;2023-04-03T05:46:23;5.70;;;4.50;;
8466;SDS011;4270;48.148;11.648;2023-04-03T05:48:48;5.60;;;4.10;;
8466;SDS011;4270;48.148;11.648;2023-04-03T05:51:18;7.37;;;4.60;;
8466;SDS011;4270;48.148;11.648;2023-04-03T05:53:43;5.00;;;3.70;;
8466;SDS011;4270;48.148;11.648;2023-04-03T05:56:09;4.40;;;3.73;;
8466;SDS011;4270;48.148;11.648;2023-04-03T05:58:34;5.37;;;3.80;;
8466;SDS011;4270;48.148;11.648;2023-04-03T06:00:59;6.40;;;4.30;;
8466;SDS011;4270;48.148;11.648;2023-04-03T06:03:25;5.70;;;4.07;;
8466;SDS011;4270;48.148;11.648;2023-04-03T06:05:51;5.00;;;3.80;;
8466;SDS011;4270;48.148;11.648;2023-04-03T06:08:16;4.97;;;3.67;;
8466;SDS011;4270;48.148;11.648;2023-04-03T06:10:41;4.93;;;3.23;;
8466;SDS011;4270;48.148;11.648;2023-04-03T06:13:07;5.17;;;3.80;;
8466;SDS011;4270;48.148;11.648;2023-04-03T06:15:32;5.67;;;4.20;;
8466;SDS011;4270;48.148;11.648;2023-04-03T06:17:58;6.43;;;4.23;;
8466;SDS011;4270;48.148;11.648;2023-04-03T06:20:24;5.50;;;4.10;;
8466;SDS011;4270;48.148;11.648;2023-04-03T06:22:49;5.20;;;4.20;;
8466;SDS011;4270;48.148;11.648;2023-04-03T06:25:15;6.13;;;3.97;;
8466;SDS011;4270;48.148;11.648;2023-04-03T06:27:42;7.00;;;4.07;;
8466;SDS011;4270;48.148;11.648;2023-04-03T06:30:07;5.00;;;3.87;;
8466;SDS011;4270;48.148;11.648;2023-04-03T06:32:33;4.93;;;4.20;;
8466;SDS011;4270;48.148;11.648;2023-04-03T06:34:58;4.67;;;4.10;;
8466;SDS011;4270;48.148;11.648;2023-04-03T06:37:24;5.97;;;4.90;;
8466;SDS011;4270;48.148;11.648;2023-04-03T06:39:54;4.10;;;3.53;;
8466;SDS011;4270;48.148;11.648;2023-04-03T06:42:19;4.07;;;3.67;;
8466;SDS011;4270;48.148;11.648;2023-04-03T06:44:45;5.27;;;4.40;;
8466;SDS011;4270;48.148;11.648;2023-04-03T06:47:13;5.70;;;5.00;;
8466;SDS011;4270;48.148;11.648;2023-04-03T06:49:39;9.40;;;6.90;;
8466;SDS011;4270;48.148;11.648;2023-04-03T06:52:05;6.40;;;4.27;;
8466;SDS011;4270;48.148;11.648;2023-04-03T06:54:30;5.27;;;3.90;;
8466;SDS011;4270;48.148;11.648;2023-04-03T06:56:56;5.10;;;4.07;;
8466;SDS011;4270;48.148;11.648;2023-04-03T06:59:21;5.53;;;3.90;;
8466;SDS011;4270;48.148;11.648;2023-04-03T07:01:46;4.90;;;4.13;;
8466;SDS011;4270;48.148;11.648;2023-04-03T07:04:12;7.60;;;4.10;;
8466;SDS011;4270;48.148;11.648;2023-04-03T07:06:37;6.33;;;4.40;;
8466;SDS011;4270;48.148;11.648;2023-04-03T07:09:02;4.50;;;3.77;;
8466;SDS011;4270;48.148;11.648;2023-04-03T07:11:28;5.20;;;4.30;;
8466;SDS011;4270;48.148;11.648;2023-04-03T07:13:53;4.47;;;3.47;;
8466;SDS011;4270;48.148;11.648;2023-04-03T07:16:18;4.97;;;3.80;;
8466;SDS011;4270;48.148;11.648;2023-04-03T07:18:44;4.70;;;3.77;;
8466;SDS011;4270;48.148;11.648;2023-04-03T07:23:37;5.93;;;4.47;;
8466;SDS011;4270;48.148;11.648;2023-04-03T07:26:03;4.50;;;3.77;;
8466;SDS011;4270;48.148;11.648;2023-04-03T07:28:29;5.17;;;4.27;;
8466;SDS011;4270;48.148;11.648;2023-04-03T07:31:06;6.13;;;4.23;;
8466;SDS011;4270;48.148;11.648;2023-04-03T07:33:34;8.03;;;5.10;;
8466;SDS011;4270;48.148;11.648;2023-04-03T07:36:01;5.40;;;4.47;;
8466;SDS011;4270;48.148;11.648;2023-04-03T07:38:27;5.33;;;4.60;;
8466;SDS011;4270;48.148;11.648;2023-04-03T07:40:53;6.00;;;4.43;;
8466;SDS011;4270;48.148;11.648;2023-04-03T07:43:19;6.20;;;5.27;;
8466;SDS011;4270;48.148;11.648;2023-04-03T07:45:46;8.30;;;5.20;;
8466;SDS011;4270;48.148;11.648;2023-04-03T07:50:51;7.00;;;5.73;;
8466;SDS011;4270;48.148;11.648;2023-04-03T07:53:17;6.17;;;5.57;;
8466;SDS011;4270;48.148;11.648;2023-04-03T07:55:45;6.73;;;4.87;;
8466;SDS011;4270;48.148;11.648;2023-04-03T07:58:11;5.93;;;5.27;;
8466;SDS011;4270;48.148;11.648;2023-04-03T08:00:37;9.37;;;6.50;;
8466;SDS011;4270;48.148;11.648;2023-04-03T08:03:03;5.63;;;5.00;;
8466;SDS011;4270;48.148;11.648;2023-04-03T08:05:28;6.77;;;5.47;;
8466;SDS011;4270;48.148;11.648;2023-04-03T08:07:53;6.00;;;4.80;;
8466;SDS011;4270;48.148;11.648;2023-04-03T08:10:19;9.97;;;5.70;;
8466;SDS011;4270;48.148;11.648;2023-04-03T08:12:45;11.33;;;5.83;;
8466;SDS011;4270;48.148;11.648;2023-04-03T08:15:11;6.10;;;5.30;;
8466;SDS011;4270;48.148;11.648;2023-04-03T08:17:36;9.30;;;5.30;;
8466;SDS011;4270;48.148;11.648;2023-04-03T08:20:02;10.90;;;5.90;;
8466;SDS011;4270;48.148;11.648;2023-04-03T08:22:28;7.03;;;5.50;;
8466;SDS011;4270;48.148;11.648;2023-04-03T08:24:54;8.23;;;5.47;;
8466;SDS011;4270;48.148;11.648;2023-04-03T08:27:19;6.83;;;4.97;;
8466;SDS011;4270;48.148;11.648;2023-04-03T08:29:45;5.70;;;4.70;;
8466;SDS011;4270;48.148;11.648;2023-04-03T08:32:10;7.23;;;5.40;;
8466;SDS011;4270;48.148;11.648;2023-04-03T08:34:35;7.10;;;5.10;;
8466;SDS011;4270;48.148;11.648;2023-04-03T08:37:01;6.47;;;4.77;;
8466;SDS011;4270;48.148;11.648;2023-04-03T08:39:27;6.37;;;4.97;;
8466;SDS011;4270;48.148;11.648;2023-04-03T08:41:52;7.27;;;5.10;;
8466;SDS011;4270;48.148;11.648;2023-04-03T08:51:57;8.67;;;5.67;;
8466;SDS011;4270;48.148;11.648;2023-04-03T08:54:28;7.80;;;6.47;;
8466;SDS011;4270;48.148;11.648;2023-04-03T08:56:53;12.70;;;8.10;;
8466;SDS011;4270;48.148;11.648;2023-04-03T08:59:24;9.53;;;5.57;;
8466;SDS011;4270;48.148;11.648;2023-04-03T09:01:49;5.60;;;5.03;;
8466;SDS011;4270;48.148;11.648;2023-04-03T09:04:16;7.63;;;5.63;;
8466;SDS011;4270;48.148;11.648;2023-04-03T09:06:44;10.43;;;5.20;;
8466;SDS011;4270;48.148;11.648;2023-04-03T09:19:49;5.67;;;5.07;;
8466;SDS011;4270;48.148;11.648;2023-04-03T09:22:17;11.63;;;5.53;;
8466;SDS011;4270;48.148;11.648;2023-04-03T09:27:23;6.73;;;4.80;;
8466;SDS011;4270;48.148;11.648;2023-04-03T09:29:48;6.27;;;4.90;;
8466;SDS011;4270;48.148;11.648;2023-04-03T09:34:52;5.00;;;4.43;;
8466;SDS011;4270;48.148;11.648;2023-04-03T09:40:03;5.90;;;4.33;;
8466;SDS011;4270;48.148;11.648;2023-04-03T09:42:29;4.70;;;4.20;;
8466;SDS011;4270;48.148;11.648;2023-04-03T09:45:00;4.87;;;4.37;;
8466;SDS011;4270;48.148;11.648;2023-04-03T09:47:29;5.30;;;4.07;;
8466;SDS011;4270;48.148;11.648;2023-04-03T09:52:35;5.93;;;4.47;;
8466;SDS011;4270;48.148;11.648;2023-04-03T09:55:20;4.30;;;3.30;;
8466;SDS011;4270;48.148;11.648;2023-04-03T09:58:00;4.20;;;3.80;;
8466;SDS011;4270;48.148;11.648;2023-04-03T10:00:36;6.27;;;4.40;;
8466;SDS011;4270;48.148;11.648;2023-04-03T10:03:02;4.73;;;3.90;;
8466;SDS011;4270;48.148;11.648;2023-04-03T10:05:31;4.87;;;4.37;;
8466;SDS011;4270;48.148;11.648;2023-04-03T10:11:13;6.80;;;5.07;;
8466;SDS011;4270;48.148;11.648;2023-04-03T10:13:56;5.40;;;4.67;;
8466;SDS011;4270;48.148;11.648;2023-04-03T10:16:25;4.73;;;4.23;;
8466;SDS011;4270;48.148;11.648;2023-04-03T10:18:58;7.93;;;4.50;;
8466;SDS011;4270;48.148;11.648;2023-04-03T10:22:08;5.43;;;4.50;;
8466;SDS011;4270;48.148;11.648;2023-04-03T10:24:14;8.97;;;5.90;;
8466;SDS011;4270;48.148;11.648;2023-04-03T10:32:16;4.30;;;3.70;;
8466;SDS011;4270;48.148;11.648;2023-04-03T10:34:44;4.73;;;3.97;;
8466;SDS011;4270;48.148;11.648;2023-04-03T10:37:17;6.37;;;4.90;;
8466;SDS011;4270;48.148;11.648;2023-04-03T10:39:53;5.60;;;3.90;;
8466;SDS011;4270;48.148;11.648;2023-04-03T10:47:24;6.20;;;4.40;;
8466;SDS011;4270;48.148;11.648;2023-04-03T10:57:47;5.87;;;4.20;;
8466;SDS011;4270;48.148;11.648;2023-04-03T11:00:16;5.33;;;4.00;;
8466;SDS011;4270;48.148;11.648;2023-04-03T11:02:59;5.90;;;3.70;;
8466;SDS011;4270;48.148;11.648;2023-04-03T11:05:45;4.57;;;3.60;;
8466;SDS011;4270;48.148;11.648;2023-04-03T11:10:56;4.43;;;3.50;;
8466;SDS011;4270;48.148;11.648;2023-04-03T11:16:07;5.77;;;3.03;;
8466;SDS011;4270;48.148;11.648;2023-04-03T11:18:40;4.33;;;2.67;;
8466;SDS011;4270;48.148;11.648;2023-04-03T11:21:08;5.40;;;3.27;;
8466;SDS011;4270;48.148;11.648;2023-04-03T11:23:36;2.83;;;2.50;;
8466;SDS011;4270;48.148;11.648;2023-04-03T11:26:13;4.27;;;3.23;;
8466;SDS011;4270;48.148;11.648;2023-04-03T11:28:39;4.67;;;3.03;;
8466;SDS011;4270;48.148;11.648;2023-04-03T11:36:31;5.17;;;3.17;;
8466;SDS011;4270;48.148;11.648;2023-04-03T11:38:58;4.20;;;3.10;;
8466;SDS011;4270;48.148;11.648;2023-04-03T11:41:26;5.67;;;2.67;;
8466;SDS011;4270;48.148;11.648;2023-04-03T11:46:21;2.53;;;2.30;;
8466;SDS011;4270;48.148;11.648;2023-04-03T11:48:48;7.83;;;2.27;;
8466;SDS011;4270;48.148;11.648;2023-04-03T11:53:41;2.93;;;2.03;;
8466;SDS011;4270;48.148;11.648;2023-04-03T12:01:44;2.20;;;1.50;;
8466;SDS011;4270;48.148;11.648;2023-04-03T12:04:10;2.73;;;2.17;;
8466;SDS011;4270;48.148;11.648;2023-04-03T12:09:10;5.37;;;2.13;;
8466;SDS011;4270;48.148;11.648;2023-04-03T12:11:47;3.07;;;2.03;;
8466;SDS011;4270;48.148;11.648;2023-04-03T12:14:17;3.30;;;2.43;;
8466;SDS011;4270;48.148;11.648;2023-04-03T12:16:44;4.33;;;2.50;;
8466;SDS011;4270;48.148;11.648;2023-04-03T12:26:47;2.70;;;2.20;;
8466;SDS011;4270;48.148;11.648;2023-04-03T12:37:03;2.70;;;2.30;;
8466;SDS011;4270;48.148;11.648;2023-04-03T12:50:03;2.00;;;1.80;;
8466;SDS011;4270;48.148;11.648;2023-04-03T12:54:55;2.63;;;1.80;;
8466;SDS011;4270;48.148;11.648;2023-04-03T12:57:26;2.40;;;1.70;;
8466;SDS011;4270;48.148;11.648;2023-04-03T12:59:54;1.90;;;1.73;;
8466;SDS011;4270;48.148;11.648;2023-04-03T13:02:27;3.10;;;1.70;;
8466;SDS011;4270;48.148;11.648;2023-04-03T13:04:54;1.60;;;1.50;;
8466;SDS011;4270;48.148;11.648;2023-04-03T13:07:20;5.50;;;2.23;;
8466;SDS011;4270;48.148;11.648;2023-04-03T13:09:54;2.07;;;1.93;;
8466;SDS011;4270;48.148;11.648;2023-04-03T13:12:19;2.13;;;1.80;;
8466;SDS011;4270;48.148;11.648;2023-04-03T13:14:53;2.90;;;1.50;;
8466;SDS011;4270;48.148;11.648;2023-04-03T13:17:19;2.03;;;1.60;;
8466;SDS011;4270;48.148;11.648;2023-04-03T13:19:44;1.50;;;1.40;;
8466;SDS011;4270;48.148;11.648;2023-04-03T13:24:47;3.10;;;2.10;;
8466;SDS011;4270;48.148;11.648;2023-04-03T13:27:14;1.90;;;1.60;;
8466;SDS011;4270;48.148;11.648;2023-04-03T13:29:40;3.27;;;2.00;;
8466;SDS011;4270;48.148;11.648;2023-04-03T13:32:05;1.67;;;1.50;;
8466;SDS011;4270;48.148;11.648;2023-04-03T13:34:38;3.57;;;2.40;;
8466;SDS011;4270;48.148;11.648;2023-04-03T13:37:05;2.60;;;1.33;;
8466;SDS011;4270;48.148;11.648;2023-04-03T13:39:37;2.67;;;1.73;;
8466;SDS011;4270;48.148;11.648;2023-04-03T13:42:17;3.50;;;1.70;;
8466;SDS011;4270;48.148;11.648;2023-04-03T13:44:46;4.80;;;2.43;;
8466;SDS011;4270;48.148;11.648;2023-04-03T13:47:19;2.80;;;1.83;;
8466;SDS011;4270;48.148;11.648;2023-04-03T13:50:30;3.70;;;2.07;;
8466;SDS011;4270;48.148;11.648;2023-04-03T13:52:51;1.83;;;1.40;;
8466;SDS011;4270;48.148;11.648;2023-04-03T13:55:18;3.27;;;1.63;;
8466;SDS011;4270;48.148;11.648;2023-04-03T13:57:58;1.80;;;1.60;;
8466;SDS011;4270;48.148;11.648;2023-04-03T14:00:33;1.70;;;1.43;;
8466;SDS011;4270;48.148;11.648;2023-04-03T14:02:59;2.60;;;1.60;;
8466;SDS011;4270;48.148;11.648;2023-04-03T14:05:24;4.30;;;2.10;;
8466;SDS011;4270;48.148;11.648;2023-04-03T14:07:52;2.80;;;1.67;;
8466;SDS011;4270;48.148;11.648;2023-04-03T14:10:17;2.50;;;1.63;;
8466;SDS011;4270;48.148;11.648;2023-04-03T14:12:43;3.83;;;1.93;;
8466;SDS011;4270;48.148;11.648;2023-04-03T14:15:18;4.10;;;1.70;;
8466;SDS011;4270;48.148;11.648;2023-04-03T14:17:45;1.97;;;1.43;;
8466;SDS011;4270;48.148;11.648;2023-04-03T14:20:14;5.40;;;2.37;;
8466;SDS011;4270;48.148;11.648;2023-04-03T14:22:39;2.93;;;1.60;;
8466;SDS011;4270;48.148;11.648;2023-04-03T14:25:05;2.40;;;1.57;;
8466;SDS011;4270;48.148;11.648;2023-04-03T14:27:35;2.30;;;1.60;;
8466;SDS011;4270;48.148;11.648;2023-04-03T14:30:01;1.90;;;1.70;;
8466;SDS011;4270;48.148;11.648;2023-04-03T14:32:28;5.33;;;1.90;;
8466;SDS011;4270;48.148;11.648;2023-04-03T14:34:54;2.80;;;1.73;;
8466;SDS011;4270;48.148;11.648;2023-04-03T14:37:24;2.73;;;1.60;;
8466;SDS011;4270;48.148;11.648;2023-04-03T14:39:50;4.20;;;1.50;;
8466;SDS011;4270;48.148;11.648;2023-04-03T14:42:17;4.40;;;1.97;;
8466;SDS011;4270;48.148;11.648;2023-04-03T14:44:42;3.77;;;2.20;;
8466;SDS011;4270;48.148;11.648;2023-04-03T14:47:12;1.77;;;1.40;;
8466;SDS011;4270;48.148;11.648;2023-04-03T14:49:37;1.70;;;1.57;;
8466;SDS011;4270;48.148;11.648;2023-04-03T14:52:03;2.53;;;1.30;;
8466;SDS011;4270;48.148;11.648;2023-04-03T14:54:28;2.67;;;1.40;;
8466;SDS011;4270;48.148;11.648;2023-04-03T14:56:54;1.67;;;1.30;;
8466;SDS011;4270;48.148;11.648;2023-04-03T14:59:20;1.80;;;1.30;;
8466;SDS011;4270;48.148;11.648;2023-04-03T15:01:46;2.97;;;1.47;;
8466;SDS011;4270;48.148;11.648;2023-04-03T15:04:12;1.80;;;1.37;;
8466;SDS011;4270;48.148;11.648;2023-04-03T15:06:38;1.33;;;1.10;;
8466;SDS011;4270;48.148;11.648;2023-04-03T15:09:03;2.10;;;1.57;;
8466;SDS011;4270;48.148;11.648;2023-04-03T15:11:29;2.90;;;1.23;;
8466;SDS011;4270;48.148;11.648;2023-04-03T15:13:54;1.20;;;1.10;;
8466;SDS011;4270;48.148;11.648;2023-04-03T15:16:19;3.37;;;2.37;;
8466;SDS011;4270;48.148;11.648;2023-04-03T15:18:45;4.23;;;1.80;;
8466;SDS011;4270;48.148;11.648;2023-04-03T15:21:11;1.90;;;1.07;;
8466;SDS011;4270;48.148;11.648;2023-04-03T15:23:36;3.40;;;1.60;;
8466;SDS011;4270;48.148;11.648;2023-04-03T15:26:01;1.80;;;1.23;;
8466;SDS011;4270;48.148;11.648;2023-04-03T15:30:55;2.13;;;1.60;;
8466;SDS011;4270;48.148;11.648;2023-04-03T15:33:20;1.47;;;1.30;;
8466;SDS011;4270;48.148;11.648;2023-04-03T15:35:46;3.73;;;1.50;;
8466;SDS011;4270;48.148;11.648;2023-04-03T15:38:11;3.53;;;1.47;;
8466;SDS011;4270;48.148;11.648;2023-04-03T15:40:36;1.50;;;1.10;;
8466;SDS011;4270;48.148;11.648;2023-04-03T15:43:02;2.30;;;1.50;;
8466;SDS011;4270;48.148;11.648;2023-04-03T15:45:28;1.90;;;1.33;;
8466;SDS011;4270;48.148;11.648;2023-04-03T15:47:54;1.37;;;1.27;;
8466;SDS011;4270;48.148;11.648;2023-04-03T15:50:19;1.97;;;1.47;;
8466;SDS011;4270;48.148;11.648;2023-04-03T15:52:47;4.10;;;1.40;;
8466;SDS011;4270;48.148;11.648;2023-04-03T15:55:13;2.60;;;1.40;;
8466;SDS011;4270;48.148;11.648;2023-04-03T15:57:38;2.30;;;1.60;;
8466;SDS011;4270;48.148;11.648;2023-04-03T16:00:04;1.40;;;1.10;;
8466;SDS011;4270;48.148;11.648;2023-04-03T16:02:29;4.27;;;1.47;;
8466;SDS011;4270;48.148;11.648;2023-04-03T16:04:54;3.43;;;1.20;;
8466;SDS011;4270;48.148;11.648;2023-04-03T16:07:20;3.83;;;1.67;;
8466;SDS011;4270;48.148;11.648;2023-04-03T16:09:45;4.63;;;2.00;;
8466;SDS011;4270;48.148;11.648;2023-04-03T16:12:11;2.00;;;1.80;;
8466;SDS011;4270;48.148;11.648;2023-04-03T16:14:36;2.27;;;1.20;;
8466;SDS011;4270;48.148;11.648;2023-04-03T16:17:01;1.60;;;1.40;;
8466;SDS011;4270;48.148;11.648;2023-04-03T16:19:27;2.80;;;1.40;;
8466;SDS011;4270;48.148;11.648;2023-04-03T16:21:52;2.23;;;1.33;;
8466;SDS011;4270;48.148;11.648;2023-04-03T16:24:18;2.73;;;1.60;;
8466;SDS011;4270;48.148;11.648;2023-04-03T16:26:43;4.37;;;1.60;;
8466;SDS011;4270;48.148;11.648;2023-04-03T16:29:08;4.37;;;2.00;;
8466;SDS011;4270;48.148;11.648;2023-04-03T16:31:33;1.70;;;1.33;;
8466;SDS011;4270;48.148;11.648;2023-04-03T16:34:00;2.40;;;1.70;;
8466;SDS011;4270;48.148;11.648;2023-04-03T16:36:25;1.53;;;1.30;;
8466;SDS011;4270;48.148;11.648;2023-04-03T16:38:51;2.30;;;1.53;;
8466;SDS011;4270;48.148;11.648;2023-04-03T16:41:16;1.77;;;1.40;;
8466;SDS011;4270;48.148;11.648;2023-04-03T16:43:41;2.77;;;1.50;;
8466;SDS011;4270;48.148;11.648;2023-04-03T16:46:07;4.13;;;1.53;;
8466;SDS011;4270;48.148;11.648;2023-04-03T16:48:33;2.90;;;1.80;;
8466;SDS011;4270;48.148;11.648;2023-04-03T16:50:58;2.97;;;2.17;;
8466;SDS011;4270;48.148;11.648;2023-04-03T16:53:24;5.13;;;2.13;;
8466;SDS011;4270;48.148;11.648;2023-04-03T16:55:49;6.10;;;1.50;;
8466;SDS011;4270;48.148;11.648;2023-04-03T16:58:15;2.43;;;1.97;;
8466;SDS011;4270;48.148;11.648;2023-04-03T17:00:41;2.83;;;1.53;;